sensor_id;sensor_type;location;lat;lon;timestamp;temperature;humidity
5588;DHT22;2816;49.778;9.986;2022-10-16T00:00:38;15.10;99.90
5588;DHT22;2816;49.778;9.986;2022-10-16T00:03:06;15.10;99.90
5588;DHT22;2816;49.778;9.986;2022-10-16T00:05:38;15.10;99.90
5588;DHT22;2816;49.778;9.986;2022-10-16T00:08:07;15.10;99.90
5588;DHT22;2816;49.778;9.986;2022-10-16T00:10:35;15.10;99.90
5588;DHT22;2816;49.778;9.986;2022-10-16T00:13:02;15.10;99.90
5588;DHT22;2816;49.778;9.986;2022-10-16T00:15:29;15.10;99.90
5588;DHT22;2816;49.778;9.986;2022-10-16T00:17:56;15.10;99.90
5588;DHT22;2816;49.778;9.986;2022-10-16T00:20:23;15.10;99.90
5588;DHT22;2816;49.778;9.986;2022-10-16T00:22:50;15.10;99.90
5588;DHT22;2816;49.778;9.986;2022-10-16T00:25:18;15.10;99.90
5588;DHT22;2816;49.778;9.986;2022-10-16T00:27:45;15.10;99.90
5588;DHT22;2816;49.778;9.986;2022-10-16T00:30:12;15.10;99.90
5588;DHT22;2816;49.778;9.986;2022-10-16T00:32:39;15.10;99.90
5588;DHT22;2816;49.778;9.986;2022-10-16T00:35:06;15.10;99.90
5588;DHT22;2816;49.778;9.986;2022-10-16T00:37:33;15.10;99.90
5588;DHT22;2816;49.778;9.986;2022-10-16T00:40:00;15.10;99.90
5588;DHT22;2816;49.778;9.986;2022-10-16T00:42:28;15.10;99.90
5588;DHT22;2816;49.778;9.986;2022-10-16T00:44:57;15.10;99.90
5588;DHT22;2816;49.778;9.986;2022-10-16T00:47:27;15.10;99.90
5588;DHT22;2816;49.778;9.986;2022-10-16T00:49:59;15.10;99.90
5588;DHT22;2816;49.778;9.986;2022-10-16T00:52:26;15.10;99.90
5588;DHT22;2816;49.778;9.986;2022-10-16T00:54:54;15.20;99.90
5588;DHT22;2816;49.778;9.986;2022-10-16T00:57:22;15.10;99.90
5588;DHT22;2816;49.778;9.986;2022-10-16T00:59:51;15.10;99.90
5588;DHT22;2816;49.778;9.986;2022-10-16T01:02:18;15.20;99.90
5588;DHT22;2816;49.778;9.986;2022-10-16T01:04:48;15.10;99.90
5588;DHT22;2816;49.778;9.986;2022-10-16T01:07:25;15.10;99.90
5588;DHT22;2816;49.778;9.986;2022-10-16T01:10:02;15.10;99.90
5588;DHT22;2816;49.778;9.986;2022-10-16T01:12:38;15.10;99.90
5588;DHT22;2816;49.778;9.986;2022-10-16T01:15:13;15.10;99.90
5588;DHT22;2816;49.778;9.986;2022-10-16T01:17:48;15.10;99.90
5588;DHT22;2816;49.778;9.986;2022-10-16T01:20:21;15.10;99.90
5588;DHT22;2816;49.778;9.986;2022-10-16T01:23:04;15.10;99.90
5588;DHT22;2816;49.778;9.986;2022-10-16T01:25:46;15.10;99.90
5588;DHT22;2816;49.778;9.986;2022-10-16T01:28:22;15.00;99.90
5588;DHT22;2816;49.778;9.986;2022-10-16T01:30:52;15.10;99.90
5588;DHT22;2816;49.778;9.986;2022-10-16T01:33:23;15.10;99.90
5588;DHT22;2816;49.778;9.986;2022-10-16T01:35:53;15.10;99.90
5588;DHT22;2816;49.778;9.986;2022-10-16T01:38:26;15.10;99.90
5588;DHT22;2816;49.778;9.986;2022-10-16T01:41:01;15.20;99.90
5588;DHT22;2816;49.778;9.986;2022-10-16T01:43:34;15.20;99.90
5588;DHT22;2816;49.778;9.986;2022-10-16T01:46:03;15.20;99.90
5588;DHT22;2816;49.778;9.986;2022-10-16T01:48:31;15.20;99.90
5588;DHT22;2816;49.778;9.986;2022-10-16T01:51:03;15.20;99.90
5588;DHT22;2816;49.778;9.986;2022-10-16T01:53:32;15.20;99.90
5588;DHT22;2816;49.778;9.986;2022-10-16T01:56:00;15.20;99.90
5588;DHT22;2816;49.778;9.986;2022-10-16T01:58:30;15.20;99.90
5588;DHT22;2816;49.778;9.986;2022-10-16T02:01:01;15.20;99.90
5588;DHT22;2816;49.778;9.986;2022-10-16T02:03:29;15.10;99.90
5588;DHT22;2816;49.778;9.986;2022-10-16T02:05:57;15.10;99.90
5588;DHT22;2816;49.778;9.986;2022-10-16T02:08:28;15.20;99.90
5588;DHT22;2816;49.778;9.986;2022-10-16T02:10:56;15.10;99.90
5588;DHT22;2816;49.778;9.986;2022-10-16T02:13:27;15.10;99.90
5588;DHT22;2816;49.778;9.986;2022-10-16T02:15:55;15.20;99.90
5588;DHT22;2816;49.778;9.986;2022-10-16T02:18:22;15.00;99.90
5588;DHT22;2816;49.778;9.986;2022-10-16T02:20:55;15.00;99.90
5588;DHT22;2816;49.778;9.986;2022-10-16T02:23:36;15.00;99.90
5588;DHT22;2816;49.778;9.986;2022-10-16T02:26:07;15.00;99.90
5588;DHT22;2816;49.778;9.986;2022-10-16T02:28:40;15.00;99.90
5588;DHT22;2816;49.778;9.986;2022-10-16T02:31:11;15.00;99.90
5588;DHT22;2816;49.778;9.986;2022-10-16T02:33:40;15.10;99.90
5588;DHT22;2816;49.778;9.986;2022-10-16T02:36:09;15.10;99.90
5588;DHT22;2816;49.778;9.986;2022-10-16T02:38:36;15.10;99.90
5588;DHT22;2816;49.778;9.986;2022-10-16T02:41:04;15.10;99.90
5588;DHT22;2816;49.778;9.986;2022-10-16T02:43:32;15.10;99.90
5588;DHT22;2816;49.778;9.986;2022-10-16T02:45:59;15.10;99.90
5588;DHT22;2816;49.778;9.986;2022-10-16T02:48:28;15.10;99.90
5588;DHT22;2816;49.778;9.986;2022-10-16T02:50:55;15.10;99.90
5588;DHT22;2816;49.778;9.986;2022-10-16T02:53:24;15.10;99.90
5588;DHT22;2816;49.778;9.986;2022-10-16T02:55:51;15.10;99.90
5588;DHT22;2816;49.778;9.986;2022-10-16T02:58:17;15.10;99.90
5588;DHT22;2816;49.778;9.986;2022-10-16T03:00:45;15.10;99.90
5588;DHT22;2816;49.778;9.986;2022-10-16T03:03:12;15.10;99.90
5588;DHT22;2816;49.778;9.986;2022-10-16T03:05:40;15.10;99.90
5588;DHT22;2816;49.778;9.986;2022-10-16T03:08:07;15.10;99.90
5588;DHT22;2816;49.778;9.986;2022-10-16T03:10:34;15.10;99.90
5588;DHT22;2816;49.778;9.986;2022-10-16T03:13:01;15.10;99.90
5588;DHT22;2816;49.778;9.986;2022-10-16T03:15:28;15.10;99.90
5588;DHT22;2816;49.778;9.986;2022-10-16T03:17:57;15.10;99.90
5588;DHT22;2816;49.778;9.986;2022-10-16T03:20:24;15.10;99.90
5588;DHT22;2816;49.778;9.986;2022-10-16T03:22:53;15.10;99.90
5588;DHT22;2816;49.778;9.986;2022-10-16T03:25:20;15.10;99.90
5588;DHT22;2816;49.778;9.986;2022-10-16T03:27:47;15.20;99.90
5588;DHT22;2816;49.778;9.986;2022-10-16T03:30:14;15.20;99.90
5588;DHT22;2816;49.778;9.986;2022-10-16T03:32:42;15.20;99.90
5588;DHT22;2816;49.778;9.986;2022-10-16T03:35:10;15.20;99.90
5588;DHT22;2816;49.778;9.986;2022-10-16T03:37:37;15.10;99.90
5588;DHT22;2816;49.778;9.986;2022-10-16T03:40:06;15.10;99.90
5588;DHT22;2816;49.778;9.986;2022-10-16T03:42:33;15.00;99.90
5588;DHT22;2816;49.778;9.986;2022-10-16T03:45:00;15.00;99.90
5588;DHT22;2816;49.778;9.986;2022-10-16T03:47:27;15.00;99.90
5588;DHT22;2816;49.778;9.986;2022-10-16T03:49:54;14.90;99.90
5588;DHT22;2816;49.778;9.986;2022-10-16T03:52:21;14.90;99.90
5588;DHT22;2816;49.778;9.986;2022-10-16T03:54:48;14.90;99.90
5588;DHT22;2816;49.778;9.986;2022-10-16T03:57:16;14.90;99.90
5588;DHT22;2816;49.778;9.986;2022-10-16T03:59:43;14.90;99.90
5588;DHT22;2816;49.778;9.986;2022-10-16T04:02:10;14.90;99.90
5588;DHT22;2816;49.778;9.986;2022-10-16T04:04:39;14.90;99.90
5588;DHT22;2816;49.778;9.986;2022-10-16T04:07:06;14.90;99.90
5588;DHT22;2816;49.778;9.986;2022-10-16T04:09:32;14.90;99.90
5588;DHT22;2816;49.778;9.986;2022-10-16T04:11:59;14.90;99.90
5588;DHT22;2816;49.778;9.986;2022-10-16T04:14:28;14.90;99.90
5588;DHT22;2816;49.778;9.986;2022-10-16T04:16:54;15.00;99.90
5588;DHT22;2816;49.778;9.986;2022-10-16T04:19:22;15.00;99.90
5588;DHT22;2816;49.778;9.986;2022-10-16T04:21:48;14.90;99.90
5588;DHT22;2816;49.778;9.986;2022-10-16T04:24:15;14.90;99.90
5588;DHT22;2816;49.778;9.986;2022-10-16T04:26:42;14.90;99.90
5588;DHT22;2816;49.778;9.986;2022-10-16T04:29:09;14.90;99.90
5588;DHT22;2816;49.778;9.986;2022-10-16T04:31:38;14.90;99.90
5588;DHT22;2816;49.778;9.986;2022-10-16T04:34:05;14.90;99.90
5588;DHT22;2816;49.778;9.986;2022-10-16T04:36:32;14.90;99.90
5588;DHT22;2816;49.778;9.986;2022-10-16T04:38:59;14.90;99.90
5588;DHT22;2816;49.778;9.986;2022-10-16T04:41:26;14.80;99.90
5588;DHT22;2816;49.778;9.986;2022-10-16T04:43:53;14.90;99.90
5588;DHT22;2816;49.778;9.986;2022-10-16T04:46:20;14.90;99.90
5588;DHT22;2816;49.778;9.986;2022-10-16T04:48:48;14.90;99.90
5588;DHT22;2816;49.778;9.986;2022-10-16T04:51:15;14.90;99.90
5588;DHT22;2816;49.778;9.986;2022-10-16T04:53:42;14.90;99.90
5588;DHT22;2816;49.778;9.986;2022-10-16T04:56:09;14.90;99.90
5588;DHT22;2816;49.778;9.986;2022-10-16T04:58:36;14.90;99.90
5588;DHT22;2816;49.778;9.986;2022-10-16T05:01:03;14.90;99.90
5588;DHT22;2816;49.778;9.986;2022-10-16T05:03:30;14.90;99.90
5588;DHT22;2816;49.778;9.986;2022-10-16T05:06:00;14.90;99.90
5588;DHT22;2816;49.778;9.986;2022-10-16T05:08:27;14.90;99.90
5588;DHT22;2816;49.778;9.986;2022-10-16T05:10:54;14.90;99.90
5588;DHT22;2816;49.778;9.986;2022-10-16T05:13:21;14.90;99.90
5588;DHT22;2816;49.778;9.986;2022-10-16T05:15:48;14.90;99.90
5588;DHT22;2816;49.778;9.986;2022-10-16T05:18:15;14.90;99.90
5588;DHT22;2816;49.778;9.986;2022-10-16T05:20:42;14.90;99.90
5588;DHT22;2816;49.778;9.986;2022-10-16T05:23:11;14.90;99.90
5588;DHT22;2816;49.778;9.986;2022-10-16T05:25:38;14.90;99.90
5588;DHT22;2816;49.778;9.986;2022-10-16T05:28:04;14.80;99.90
5588;DHT22;2816;49.778;9.986;2022-10-16T05:30:31;14.80;99.90
5588;DHT22;2816;49.778;9.986;2022-10-16T05:32:58;14.70;99.90
5588;DHT22;2816;49.778;9.986;2022-10-16T05:35:25;14.70;99.90
5588;DHT22;2816;49.778;9.986;2022-10-16T05:37:52;14.70;99.90
5588;DHT22;2816;49.778;9.986;2022-10-16T05:40:21;14.70;99.90
5588;DHT22;2816;49.778;9.986;2022-10-16T05:42:48;14.80;99.90
5588;DHT22;2816;49.778;9.986;2022-10-16T05:45:15;14.80;99.90
5588;DHT22;2816;49.778;9.986;2022-10-16T05:47:42;14.80;99.90
5588;DHT22;2816;49.778;9.986;2022-10-16T05:50:09;14.80;99.90
5588;DHT22;2816;49.778;9.986;2022-10-16T05:52:36;14.80;99.90
5588;DHT22;2816;49.778;9.986;2022-10-16T05:55:03;14.80;99.90
5588;DHT22;2816;49.778;9.986;2022-10-16T05:57:32;14.80;99.90
5588;DHT22;2816;49.778;9.986;2022-10-16T05:59:58;14.70;99.90
5588;DHT22;2816;49.778;9.986;2022-10-16T06:02:25;14.70;99.90
5588;DHT22;2816;49.778;9.986;2022-10-16T06:04:52;14.80;99.90
5588;DHT22;2816;49.778;9.986;2022-10-16T06:07:20;14.80;99.90
5588;DHT22;2816;49.778;9.986;2022-10-16T06:09:49;14.80;99.90
5588;DHT22;2816;49.778;9.986;2022-10-16T06:12:16;14.80;99.90
5588;DHT22;2816;49.778;9.986;2022-10-16T06:14:45;14.70;99.90
5588;DHT22;2816;49.778;9.986;2022-10-16T06:17:12;14.70;99.90
5588;DHT22;2816;49.778;9.986;2022-10-16T06:19:40;14.70;99.90
5588;DHT22;2816;49.778;9.986;2022-10-16T06:22:07;14.70;99.90
5588;DHT22;2816;49.778;9.986;2022-10-16T06:24:34;14.80;99.90
5588;DHT22;2816;49.778;9.986;2022-10-16T06:27:00;14.80;99.90
5588;DHT22;2816;49.778;9.986;2022-10-16T06:29:27;14.70;99.90
5588;DHT22;2816;49.778;9.986;2022-10-16T06:31:56;14.70;99.90
5588;DHT22;2816;49.778;9.986;2022-10-16T06:34:23;14.70;99.90
5588;DHT22;2816;49.778;9.986;2022-10-16T06:36:50;14.80;99.90
5588;DHT22;2816;49.778;9.986;2022-10-16T06:39:17;14.80;99.90
5588;DHT22;2816;49.778;9.986;2022-10-16T06:41:44;14.80;99.90
5588;DHT22;2816;49.778;9.986;2022-10-16T06:44:11;14.80;99.90
5588;DHT22;2816;49.778;9.986;2022-10-16T06:46:37;14.80;99.90
5588;DHT22;2816;49.778;9.986;2022-10-16T06:49:06;14.80;99.90
5588;DHT22;2816;49.778;9.986;2022-10-16T06:51:33;14.80;99.90
5588;DHT22;2816;49.778;9.986;2022-10-16T06:54:01;14.80;99.90
5588;DHT22;2816;49.778;9.986;2022-10-16T06:56:30;14.80;99.90
5588;DHT22;2816;49.778;9.986;2022-10-16T06:58:57;14.80;99.90
5588;DHT22;2816;49.778;9.986;2022-10-16T07:01:25;14.90;99.90
5588;DHT22;2816;49.778;9.986;2022-10-16T07:03:52;14.80;99.90
5588;DHT22;2816;49.778;9.986;2022-10-16T07:06:22;14.90;99.90
5588;DHT22;2816;49.778;9.986;2022-10-16T07:08:50;14.90;99.90
5588;DHT22;2816;49.778;9.986;2022-10-16T07:11:18;14.90;99.90
5588;DHT22;2816;49.778;9.986;2022-10-16T07:13:47;15.00;99.90
5588;DHT22;2816;49.778;9.986;2022-10-16T07:16:16;15.10;99.90
5588;DHT22;2816;49.778;9.986;2022-10-16T07:18:44;15.10;99.90
5588;DHT22;2816;49.778;9.986;2022-10-16T07:21:14;15.10;99.90
5588;DHT22;2816;49.778;9.986;2022-10-16T07:23:43;15.10;99.90
5588;DHT22;2816;49.778;9.986;2022-10-16T07:26:10;15.10;99.90
5588;DHT22;2816;49.778;9.986;2022-10-16T07:28:37;15.20;99.90
5588;DHT22;2816;49.778;9.986;2022-10-16T07:31:07;15.10;99.90
5588;DHT22;2816;49.778;9.986;2022-10-16T07:33:37;15.20;99.90
5588;DHT22;2816;49.778;9.986;2022-10-16T07:36:05;15.20;99.90
5588;DHT22;2816;49.778;9.986;2022-10-16T07:38:32;15.20;99.90
5588;DHT22;2816;49.778;9.986;2022-10-16T07:41:02;15.20;99.90
5588;DHT22;2816;49.778;9.986;2022-10-16T07:43:30;15.20;99.90
5588;DHT22;2816;49.778;9.986;2022-10-16T07:45:57;15.30;99.90
5588;DHT22;2816;49.778;9.986;2022-10-16T07:48:26;15.30;99.90
5588;DHT22;2816;49.778;9.986;2022-10-16T07:50:57;15.40;99.90
5588;DHT22;2816;49.778;9.986;2022-10-16T07:53:24;15.40;99.90
5588;DHT22;2816;49.778;9.986;2022-10-16T07:55:51;15.40;99.90
5588;DHT22;2816;49.778;9.986;2022-10-16T07:58:20;15.40;99.90
5588;DHT22;2816;49.778;9.986;2022-10-16T08:00:46;15.40;99.90
5588;DHT22;2816;49.778;9.986;2022-10-16T08:03:14;15.50;99.90
5588;DHT22;2816;49.778;9.986;2022-10-16T08:05:41;15.40;99.90
5588;DHT22;2816;49.778;9.986;2022-10-16T08:08:12;15.40;99.90
5588;DHT22;2816;49.778;9.986;2022-10-16T08:10:40;15.40;99.90
5588;DHT22;2816;49.778;9.986;2022-10-16T08:13:07;15.40;99.90
5588;DHT22;2816;49.778;9.986;2022-10-16T08:15:35;15.50;99.90
5588;DHT22;2816;49.778;9.986;2022-10-16T08:18:04;15.50;99.90
5588;DHT22;2816;49.778;9.986;2022-10-16T08:20:32;15.50;99.90
5588;DHT22;2816;49.778;9.986;2022-10-16T08:22:59;15.60;99.90
5588;DHT22;2816;49.778;9.986;2022-10-16T08:25:27;15.70;99.90
5588;DHT22;2816;49.778;9.986;2022-10-16T08:27:54;15.80;99.90
5588;DHT22;2816;49.778;9.986;2022-10-16T08:30:23;15.80;99.90
5588;DHT22;2816;49.778;9.986;2022-10-16T08:32:52;15.80;99.90
5588;DHT22;2816;49.778;9.986;2022-10-16T08:35:20;15.80;99.90
5588;DHT22;2816;49.778;9.986;2022-10-16T08:37:46;15.90;99.90
5588;DHT22;2816;49.778;9.986;2022-10-16T08:40:18;15.90;99.90
5588;DHT22;2816;49.778;9.986;2022-10-16T08:42:59;15.90;99.90
5588;DHT22;2816;49.778;9.986;2022-10-16T08:45:36;15.90;99.90
5588;DHT22;2816;49.778;9.986;2022-10-16T08:48:15;16.00;99.90
5588;DHT22;2816;49.778;9.986;2022-10-16T08:50:44;16.00;99.90
5588;DHT22;2816;49.778;9.986;2022-10-16T08:53:18;16.00;99.90
5588;DHT22;2816;49.778;9.986;2022-10-16T08:55:48;16.00;99.90
5588;DHT22;2816;49.778;9.986;2022-10-16T08:58:18;16.10;99.90
5588;DHT22;2816;49.778;9.986;2022-10-16T09:00:47;16.10;99.90
5588;DHT22;2816;49.778;9.986;2022-10-16T09:03:28;16.10;99.90
5588;DHT22;2816;49.778;9.986;2022-10-16T09:06:19;16.20;99.90
5588;DHT22;2816;49.778;9.986;2022-10-16T09:09:00;16.20;99.90
5588;DHT22;2816;49.778;9.986;2022-10-16T09:11:37;16.20;99.90
5588;DHT22;2816;49.778;9.986;2022-10-16T09:14:31;16.20;99.90
5588;DHT22;2816;49.778;9.986;2022-10-16T09:17:14;16.30;99.90
5588;DHT22;2816;49.778;9.986;2022-10-16T09:19:48;16.40;99.90
5588;DHT22;2816;49.778;9.986;2022-10-16T09:22:18;16.40;99.90
5588;DHT22;2816;49.778;9.986;2022-10-16T09:24:47;16.40;99.90
5588;DHT22;2816;49.778;9.986;2022-10-16T09:27:15;16.40;99.90
5588;DHT22;2816;49.778;9.986;2022-10-16T09:29:42;16.50;99.90
5588;DHT22;2816;49.778;9.986;2022-10-16T09:32:12;16.50;99.90
5588;DHT22;2816;49.778;9.986;2022-10-16T09:34:43;16.50;99.90
5588;DHT22;2816;49.778;9.986;2022-10-16T09:37:13;16.50;99.90
5588;DHT22;2816;49.778;9.986;2022-10-16T09:39:44;16.50;99.90
5588;DHT22;2816;49.778;9.986;2022-10-16T09:42:15;16.60;99.90
5588;DHT22;2816;49.778;9.986;2022-10-16T09:44:47;16.60;99.90
5588;DHT22;2816;49.778;9.986;2022-10-16T09:47:16;16.70;99.90
5588;DHT22;2816;49.778;9.986;2022-10-16T09:49:54;16.70;99.90
5588;DHT22;2816;49.778;9.986;2022-10-16T09:52:23;16.70;99.90
5588;DHT22;2816;49.778;9.986;2022-10-16T09:54:52;16.70;99.90
5588;DHT22;2816;49.778;9.986;2022-10-16T09:57:20;16.70;99.90
5588;DHT22;2816;49.778;9.986;2022-10-16T09:59:49;16.80;99.90
5588;DHT22;2816;49.778;9.986;2022-10-16T10:02:19;16.90;99.90
5588;DHT22;2816;49.778;9.986;2022-10-16T10:04:50;16.90;99.90
5588;DHT22;2816;49.778;9.986;2022-10-16T10:07:25;16.90;99.90
5588;DHT22;2816;49.778;9.986;2022-10-16T10:09:53;16.90;99.90
5588;DHT22;2816;49.778;9.986;2022-10-16T10:12:23;16.90;99.90
5588;DHT22;2816;49.778;9.986;2022-10-16T10:14:54;17.00;99.90
5588;DHT22;2816;49.778;9.986;2022-10-16T10:17:22;17.00;99.90
5588;DHT22;2816;49.778;9.986;2022-10-16T10:19:52;17.10;99.90
5588;DHT22;2816;49.778;9.986;2022-10-16T10:22:31;17.10;99.90
5588;DHT22;2816;49.778;9.986;2022-10-16T10:25:22;17.10;99.90
5588;DHT22;2816;49.778;9.986;2022-10-16T10:28:06;17.10;99.90
5588;DHT22;2816;49.778;9.986;2022-10-16T10:30:41;17.10;99.90
5588;DHT22;2816;49.778;9.986;2022-10-16T10:33:18;17.10;99.90
5588;DHT22;2816;49.778;9.986;2022-10-16T10:35:56;17.10;99.90
5588;DHT22;2816;49.778;9.986;2022-10-16T10:38:42;17.00;99.90
5588;DHT22;2816;49.778;9.986;2022-10-16T10:41:27;17.00;99.90
5588;DHT22;2816;49.778;9.986;2022-10-16T10:44:03;16.90;99.90
5588;DHT22;2816;49.778;9.986;2022-10-16T10:46:36;16.80;99.90
5588;DHT22;2816;49.778;9.986;2022-10-16T10:49:18;16.80;99.90
5588;DHT22;2816;49.778;9.986;2022-10-16T10:51:55;16.80;99.90
5588;DHT22;2816;49.778;9.986;2022-10-16T10:54:30;16.80;99.90
5588;DHT22;2816;49.778;9.986;2022-10-16T10:57:02;16.90;99.90
5588;DHT22;2816;49.778;9.986;2022-10-16T10:59:50;16.90;99.90
5588;DHT22;2816;49.778;9.986;2022-10-16T11:02:24;16.90;99.90
5588;DHT22;2816;49.778;9.986;2022-10-16T11:05:04;17.00;99.90
5588;DHT22;2816;49.778;9.986;2022-10-16T11:07:37;17.00;99.90
5588;DHT22;2816;49.778;9.986;2022-10-16T11:10:14;17.30;99.90
5588;DHT22;2816;49.778;9.986;2022-10-16T11:12:44;17.40;99.90
5588;DHT22;2816;49.778;9.986;2022-10-16T11:15:19;17.50;99.90
5588;DHT22;2816;49.778;9.986;2022-10-16T11:17:51;17.70;99.90
5588;DHT22;2816;49.778;9.986;2022-10-16T11:20:21;17.80;99.90
5588;DHT22;2816;49.778;9.986;2022-10-16T11:22:53;18.00;99.90
5588;DHT22;2816;49.778;9.986;2022-10-16T11:25:26;18.00;99.90
5588;DHT22;2816;49.778;9.986;2022-10-16T11:27:57;18.20;99.90
5588;DHT22;2816;49.778;9.986;2022-10-16T11:30:27;18.30;99.90
5588;DHT22;2816;49.778;9.986;2022-10-16T11:33:03;18.40;99.90
5588;DHT22;2816;49.778;9.986;2022-10-16T11:35:44;18.70;99.90
5588;DHT22;2816;49.778;9.986;2022-10-16T11:38:19;18.60;99.90
5588;DHT22;2816;49.778;9.986;2022-10-16T11:40:56;18.90;99.90
5588;DHT22;2816;49.778;9.986;2022-10-16T11:43:28;19.20;99.90
5588;DHT22;2816;49.778;9.986;2022-10-16T11:45:58;19.00;99.90
5588;DHT22;2816;49.778;9.986;2022-10-16T11:48:32;19.30;99.90
5588;DHT22;2816;49.778;9.986;2022-10-16T11:51:05;19.50;99.90
5588;DHT22;2816;49.778;9.986;2022-10-16T11:53:42;19.80;99.90
5588;DHT22;2816;49.778;9.986;2022-10-16T11:56:14;19.90;99.90
5588;DHT22;2816;49.778;9.986;2022-10-16T11:58:51;20.10;99.90
5588;DHT22;2816;49.778;9.986;2022-10-16T12:01:24;20.30;99.90
5588;DHT22;2816;49.778;9.986;2022-10-16T12:06:43;20.80;99.90
5588;DHT22;2816;49.778;9.986;2022-10-16T12:09:15;20.90;99.90
5588;DHT22;2816;49.778;9.986;2022-10-16T12:11:47;21.20;99.90
5588;DHT22;2816;49.778;9.986;2022-10-16T12:14:32;21.30;99.90
5588;DHT22;2816;49.778;9.986;2022-10-16T12:17:02;21.10;99.90
5588;DHT22;2816;49.778;9.986;2022-10-16T12:19:31;21.30;99.90
5588;DHT22;2816;49.778;9.986;2022-10-16T12:22:00;21.40;99.90
5588;DHT22;2816;49.778;9.986;2022-10-16T12:24:32;21.70;99.90
5588;DHT22;2816;49.778;9.986;2022-10-16T12:27:01;21.80;99.90
5588;DHT22;2816;49.778;9.986;2022-10-16T12:29:34;21.50;99.90
5588;DHT22;2816;49.778;9.986;2022-10-16T12:32:04;21.80;99.90
5588;DHT22;2816;49.778;9.986;2022-10-16T12:34:38;21.90;99.90
5588;DHT22;2816;49.778;9.986;2022-10-16T12:37:14;21.80;99.90
5588;DHT22;2816;49.778;9.986;2022-10-16T12:39:45;22.10;99.90
5588;DHT22;2816;49.778;9.986;2022-10-16T12:42:34;22.20;99.90
5588;DHT22;2816;49.778;9.986;2022-10-16T12:45:12;22.50;99.90
5588;DHT22;2816;49.778;9.986;2022-10-16T12:47:48;22.70;99.90
5588;DHT22;2816;49.778;9.986;2022-10-16T12:50:34;22.40;99.90
5588;DHT22;2816;49.778;9.986;2022-10-16T12:53:04;22.50;99.90
5588;DHT22;2816;49.778;9.986;2022-10-16T12:55:54;22.40;99.90
5588;DHT22;2816;49.778;9.986;2022-10-16T12:58:44;22.50;99.90
5588;DHT22;2816;49.778;9.986;2022-10-16T13:01:24;22.00;99.90
5588;DHT22;2816;49.778;9.986;2022-10-16T13:04:06;22.20;99.90
5588;DHT22;2816;49.778;9.986;2022-10-16T13:06:41;22.20;99.90
5588;DHT22;2816;49.778;9.986;2022-10-16T13:09:25;22.20;99.90
5588;DHT22;2816;49.778;9.986;2022-10-16T13:12:08;22.30;99.90
5588;DHT22;2816;49.778;9.986;2022-10-16T13:15:10;22.30;99.90
5588;DHT22;2816;49.778;9.986;2022-10-16T13:17:48;22.50;99.90
5588;DHT22;2816;49.778;9.986;2022-10-16T13:20:21;22.60;99.90
5588;DHT22;2816;49.778;9.986;2022-10-16T13:23:00;22.70;99.90
5588;DHT22;2816;49.778;9.986;2022-10-16T13:25:39;22.70;99.90
5588;DHT22;2816;49.778;9.986;2022-10-16T13:28:08;22.90;99.90
5588;DHT22;2816;49.778;9.986;2022-10-16T13:30:40;22.70;99.90
5588;DHT22;2816;49.778;9.986;2022-10-16T13:33:14;22.20;99.90
5588;DHT22;2816;49.778;9.986;2022-10-16T13:35:49;22.20;99.90
5588;DHT22;2816;49.778;9.986;2022-10-16T13:38:18;22.20;99.90
5588;DHT22;2816;49.778;9.986;2022-10-16T13:40:54;22.10;99.90
5588;DHT22;2816;49.778;9.986;2022-10-16T13:43:26;22.10;99.90
5588;DHT22;2816;49.778;9.986;2022-10-16T13:45:57;21.90;99.90
5588;DHT22;2816;49.778;9.986;2022-10-16T13:48:24;21.60;99.90
5588;DHT22;2816;49.778;9.986;2022-10-16T13:51:05;21.60;99.90
5588;DHT22;2816;49.778;9.986;2022-10-16T13:53:34;21.30;99.90
5588;DHT22;2816;49.778;9.986;2022-10-16T13:56:03;21.40;99.90
5588;DHT22;2816;49.778;9.986;2022-10-16T13:58:30;21.50;99.90
5588;DHT22;2816;49.778;9.986;2022-10-16T14:01:00;21.60;99.90
5588;DHT22;2816;49.778;9.986;2022-10-16T14:03:28;21.50;99.90
5588;DHT22;2816;49.778;9.986;2022-10-16T14:05:58;21.40;99.90
5588;DHT22;2816;49.778;9.986;2022-10-16T14:08:29;21.40;99.90
5588;DHT22;2816;49.778;9.986;2022-10-16T14:10:58;21.40;99.90
5588;DHT22;2816;49.778;9.986;2022-10-16T14:13:31;21.20;99.90
5588;DHT22;2816;49.778;9.986;2022-10-16T14:16:04;21.20;99.90
5588;DHT22;2816;49.778;9.986;2022-10-16T14:18:32;21.20;99.90
5588;DHT22;2816;49.778;9.986;2022-10-16T14:21:04;21.20;99.90
5588;DHT22;2816;49.778;9.986;2022-10-16T14:23:34;21.10;99.90
5588;DHT22;2816;49.778;9.986;2022-10-16T14:26:13;21.00;99.90
5588;DHT22;2816;49.778;9.986;2022-10-16T14:28:41;20.80;99.90
5588;DHT22;2816;49.778;9.986;2022-10-16T14:31:25;20.90;99.90
5588;DHT22;2816;49.778;9.986;2022-10-16T14:33:52;20.90;99.90
5588;DHT22;2816;49.778;9.986;2022-10-16T14:36:20;21.00;99.90
5588;DHT22;2816;49.778;9.986;2022-10-16T14:38:55;21.10;99.90
5588;DHT22;2816;49.778;9.986;2022-10-16T14:41:23;21.00;99.90
5588;DHT22;2816;49.778;9.986;2022-10-16T14:43:53;21.10;99.90
5588;DHT22;2816;49.778;9.986;2022-10-16T14:46:28;21.00;99.90
5588;DHT22;2816;49.778;9.986;2022-10-16T14:49:01;21.00;99.90
5588;DHT22;2816;49.778;9.986;2022-10-16T14:51:29;20.90;99.90
5588;DHT22;2816;49.778;9.986;2022-10-16T14:53:56;20.90;99.90
5588;DHT22;2816;49.778;9.986;2022-10-16T14:56:25;20.80;99.90
5588;DHT22;2816;49.778;9.986;2022-10-16T14:58:53;20.80;99.90
5588;DHT22;2816;49.778;9.986;2022-10-16T15:01:23;20.80;99.90
5588;DHT22;2816;49.778;9.986;2022-10-16T15:03:50;20.70;99.90
5588;DHT22;2816;49.778;9.986;2022-10-16T15:06:19;20.60;99.90
5588;DHT22;2816;49.778;9.986;2022-10-16T15:08:46;20.50;99.90
5588;DHT22;2816;49.778;9.986;2022-10-16T15:11:15;20.50;99.90
5588;DHT22;2816;49.778;9.986;2022-10-16T15:13:42;20.50;99.90
5588;DHT22;2816;49.778;9.986;2022-10-16T15:16:11;20.40;99.90
5588;DHT22;2816;49.778;9.986;2022-10-16T15:18:40;20.20;99.90
5588;DHT22;2816;49.778;9.986;2022-10-16T15:21:07;20.10;99.90
5588;DHT22;2816;49.778;9.986;2022-10-16T15:23:34;20.00;99.90
5588;DHT22;2816;49.778;9.986;2022-10-16T15:26:01;20.00;99.90
5588;DHT22;2816;49.778;9.986;2022-10-16T15:28:28;19.90;99.90
5588;DHT22;2816;49.778;9.986;2022-10-16T15:30:56;19.90;99.90
5588;DHT22;2816;49.778;9.986;2022-10-16T15:33:25;19.70;99.90
5588;DHT22;2816;49.778;9.986;2022-10-16T15:35:55;19.60;99.90
5588;DHT22;2816;49.778;9.986;2022-10-16T15:38:22;19.60;99.90
5588;DHT22;2816;49.778;9.986;2022-10-16T15:40:50;19.60;99.90
5588;DHT22;2816;49.778;9.986;2022-10-16T15:43:17;19.60;99.90
5588;DHT22;2816;49.778;9.986;2022-10-16T15:45:44;19.60;99.90
5588;DHT22;2816;49.778;9.986;2022-10-16T15:48:15;19.50;99.90
5588;DHT22;2816;49.778;9.986;2022-10-16T15:50:42;19.50;99.90
5588;DHT22;2816;49.778;9.986;2022-10-16T15:53:10;19.50;99.90
5588;DHT22;2816;49.778;9.986;2022-10-16T15:55:37;19.40;99.90
5588;DHT22;2816;49.778;9.986;2022-10-16T15:58:05;19.30;99.90
5588;DHT22;2816;49.778;9.986;2022-10-16T16:00:31;19.30;99.90
5588;DHT22;2816;49.778;9.986;2022-10-16T16:02:58;19.20;99.90
5588;DHT22;2816;49.778;9.986;2022-10-16T16:05:26;19.10;99.90
5588;DHT22;2816;49.778;9.986;2022-10-16T16:07:54;19.00;99.90
5588;DHT22;2816;49.778;9.986;2022-10-16T16:10:22;19.00;99.90
5588;DHT22;2816;49.778;9.986;2022-10-16T16:12:49;19.00;99.90
5588;DHT22;2816;49.778;9.986;2022-10-16T16:15:18;18.90;99.90
5588;DHT22;2816;49.778;9.986;2022-10-16T16:17:46;18.80;99.90
5588;DHT22;2816;49.778;9.986;2022-10-16T16:20:13;18.80;99.90
5588;DHT22;2816;49.778;9.986;2022-10-16T16:22:40;18.80;99.90
5588;DHT22;2816;49.778;9.986;2022-10-16T16:25:08;18.80;99.90